createdAt,value
2022-09-21T00:01:36.897Z,13.64
2022-09-21T00:04:03.891Z,13.69
2022-09-21T00:06:31.912Z,13.66
2022-09-21T00:08:58.247Z,13.63
2022-09-21T00:11:28.948Z,13.63
2022-09-21T00:13:57.131Z,13.61
2022-09-21T00:16:24.249Z,13.59
2022-09-21T00:18:50.669Z,13.61
2022-09-21T00:21:17.127Z,13.61
2022-09-21T00:23:44.126Z,13.60
2022-09-21T00:26:11.876Z,13.58
2022-09-21T00:28:38.467Z,13.58
2022-09-21T00:31:06.719Z,13.57
2022-09-21T00:33:33.878Z,13.58
2022-09-21T00:36:07.425Z,13.52
2022-09-21T00:38:34.418Z,13.54
2022-09-21T00:41:00.842Z,13.52
2022-09-21T00:43:27.447Z,13.52
2022-09-21T00:45:58.706Z,13.51
2022-09-21T00:48:25.460Z,13.50
2022-09-21T00:50:54.319Z,13.47
2022-09-21T00:53:21.868Z,13.45
2022-09-21T00:55:50.979Z,13.45
2022-09-21T00:58:23.028Z,13.44
2022-09-21T01:00:49.729Z,13.42
2022-09-21T01:03:16.128Z,13.42
2022-09-21T01:05:42.470Z,13.36
2022-09-21T01:08:12.318Z,13.38
2022-09-21T01:10:46.712Z,13.32
2022-09-21T01:13:19.175Z,13.29
2022-09-21T01:15:55.624Z,13.28
2022-09-21T01:18:24.975Z,13.27
2022-09-21T01:20:51.584Z,13.22
2022-09-21T01:23:23.675Z,13.24
2022-09-21T01:25:59.900Z,13.20
2022-09-21T01:28:38.196Z,13.20
2022-09-21T01:31:07.344Z,13.17
2022-09-21T01:33:37.359Z,13.16
2022-09-21T01:36:08.045Z,13.10
2022-09-21T01:38:43.727Z,13.07
2022-09-21T01:41:12.149Z,13.06
2022-09-21T01:43:40.882Z,13.04
2022-09-21T01:46:09.680Z,13.04
2022-09-21T01:48:38.348Z,13.01
2022-09-21T01:51:07.305Z,12.97
2022-09-21T01:53:37.655Z,12.94
2022-09-21T01:56:20.675Z,12.97
2022-09-21T01:59:03.661Z,12.94
2022-09-21T02:01:32.067Z,12.89
2022-09-21T02:04:01.867Z,12.90
2022-09-21T02:06:29.310Z,12.90
2022-09-21T02:08:56.072Z,12.89
2022-09-21T02:11:22.607Z,12.83
2022-09-21T02:13:51.083Z,12.82
2022-09-21T02:16:31.656Z,12.80
2022-09-21T02:18:58.000Z,12.77
2022-09-21T02:21:41.566Z,12.78
2022-09-21T02:24:08.036Z,12.78
2022-09-21T02:26:39.455Z,12.77
2022-09-21T02:29:05.775Z,12.72
2022-09-21T02:31:34.915Z,12.70
2022-09-21T02:34:14.768Z,12.66
2022-09-21T02:36:47.124Z,12.73
2022-09-21T02:39:23.371Z,12.62
2022-09-21T02:42:03.194Z,12.62
2022-09-21T02:44:35.667Z,12.61
2022-09-21T02:47:02.023Z,12.53
2022-09-21T02:49:33.807Z,12.53
2022-09-21T02:52:05.211Z,12.49
2022-09-21T02:54:32.767Z,12.48
2022-09-21T02:57:00.436Z,12.49
2022-09-21T02:59:27.519Z,12.44
2022-09-21T03:01:55.588Z,12.46
2022-09-21T03:04:23.052Z,12.43
2022-09-21T03:06:49.422Z,12.44
2022-09-21T03:09:15.853Z,12.44
2022-09-21T03:11:44.895Z,12.40
2022-09-21T03:14:11.251Z,12.38
2022-09-21T03:16:38.080Z,12.42
2022-09-21T03:19:05.078Z,12.38
2022-09-21T03:21:31.644Z,12.37
2022-09-21T03:23:57.992Z,12.31
2022-09-21T03:26:24.425Z,12.32
2022-09-21T03:28:51.225Z,12.28
2022-09-21T03:31:17.731Z,12.25
2022-09-21T03:33:44.166Z,12.24
2022-09-21T03:36:10.554Z,12.21
2022-09-21T03:38:37.718Z,12.18
2022-09-21T03:41:04.507Z,12.18
2022-09-21T03:43:30.894Z,12.19
2022-09-21T03:45:57.833Z,12.15
2022-09-21T03:48:24.199Z,12.12
2022-09-21T03:50:50.571Z,12.12
2022-09-21T03:53:16.926Z,12.11
2022-09-21T03:55:43.316Z,12.05
2022-09-21T03:58:09.660Z,12.07
2022-09-21T04:00:36.265Z,12.06
2022-09-21T04:03:02.649Z,12.03
2022-09-21T04:05:29.042Z,11.97
2022-09-21T04:07:56.544Z,11.99
2022-09-21T04:10:27.002Z,11.98
2022-09-21T04:12:57.245Z,11.93
2022-09-21T04:15:23.883Z,11.92
2022-09-21T04:17:51.391Z,11.90
2022-09-21T04:20:17.935Z,11.86
2022-09-21T04:22:46.194Z,11.85
2022-09-21T04:25:12.971Z,11.85
2022-09-21T04:27:39.720Z,11.82
2022-09-21T04:30:06.364Z,11.79
2022-09-21T04:32:32.771Z,11.78
2022-09-21T04:34:59.174Z,11.80
2022-09-21T04:37:25.584Z,11.76
2022-09-21T04:39:51.964Z,11.75
2022-09-21T04:42:18.593Z,11.75
2022-09-21T04:44:44.980Z,11.76
2022-09-21T04:47:11.828Z,11.73
2022-09-21T04:49:38.573Z,11.71
2022-09-21T04:52:05.509Z,11.72
2022-09-21T04:54:31.866Z,11.65
2022-09-21T04:56:58.222Z,11.65
2022-09-21T04:59:24.619Z,11.64
2022-09-21T05:01:51.041Z,11.61
2022-09-21T05:04:17.775Z,11.63
2022-09-21T05:06:44.279Z,11.60
2022-09-21T05:09:39.824Z,11.56
2022-09-21T05:12:06.452Z,11.57
2022-09-21T05:14:32.790Z,11.51
2022-09-21T05:16:59.156Z,11.49
2022-09-21T05:19:25.529Z,11.52
2022-09-21T05:21:51.886Z,11.51
2022-09-21T05:24:18.250Z,11.55
2022-09-21T05:26:44.626Z,11.51
2022-09-21T05:29:11.152Z,11.46
2022-09-21T05:31:37.633Z,11.42
2022-09-21T05:34:13.131Z,11.45
2022-09-21T05:36:45.148Z,11.43
2022-09-21T05:39:12.007Z,11.41
2022-09-21T05:41:38.613Z,11.39
2022-09-21T05:44:05.184Z,11.41
2022-09-21T05:46:56.233Z,11.43
2022-09-21T05:49:51.904Z,11.41
2022-09-21T05:52:33.972Z,11.43
2022-09-21T05:55:12.540Z,11.44
2022-09-21T05:58:02.034Z,11.46
2022-09-21T06:00:35.995Z,11.51
2022-09-21T06:03:21.627Z,11.60
2022-09-21T06:05:48.049Z,11.58
2022-09-21T06:08:14.452Z,11.66
2022-09-21T06:10:40.812Z,11.68
2022-09-21T06:13:07.183Z,11.68
2022-09-21T06:15:34.641Z,11.68
2022-09-21T06:18:01.016Z,11.71
2022-09-21T06:20:27.527Z,11.72
2022-09-21T06:22:59.670Z,11.70
2022-09-21T06:25:26.097Z,11.69
2022-09-21T06:27:52.463Z,11.66
2022-09-21T06:30:18.822Z,11.70
2022-09-21T06:32:45.220Z,11.69
2022-09-21T06:35:11.615Z,11.72
2022-09-21T06:37:41.908Z,11.83
2022-09-21T06:40:08.586Z,11.67
2022-09-21T06:42:34.945Z,11.73
2022-09-21T06:45:01.469Z,11.87
2022-09-21T06:47:27.825Z,11.84
2022-09-21T06:49:54.583Z,11.76
2022-09-21T06:52:20.943Z,11.82
2022-09-21T06:54:47.490Z,11.76
2022-09-21T06:57:13.922Z,11.98
2022-09-21T06:59:40.270Z,11.82
2022-09-21T07:02:07.045Z,11.94
2022-09-21T07:04:33.494Z,12.08
2022-09-21T07:07:03.526Z,12.08
2022-09-21T07:12:17.885Z,11.98
2022-09-21T07:14:47.353Z,11.98
2022-09-21T07:17:15.683Z,12.20
2022-09-21T07:19:42.414Z,11.98
2022-09-21T07:22:08.936Z,12.08
2022-09-21T07:24:35.284Z,11.84
2022-09-21T07:27:01.633Z,12.14
2022-09-21T07:29:28.030Z,12.26
2022-09-21T07:31:54.486Z,12.27
2022-09-21T07:34:20.914Z,12.22
2022-09-21T07:36:47.297Z,12.37
2022-09-21T07:39:13.802Z,12.49
2022-09-21T07:41:40.139Z,12.62
2022-09-21T07:44:06.665Z,12.57
2022-09-21T07:46:33.197Z,12.61
2022-09-21T07:48:59.730Z,12.65
2022-09-21T07:51:26.096Z,12.25
2022-09-21T07:53:58.929Z,12.44
2022-09-21T07:56:25.721Z,12.66
2022-09-21T07:59:07.667Z,12.52
2022-09-21T08:01:38.459Z,12.58
2022-09-21T08:04:05.824Z,12.61
2022-09-21T08:06:33.019Z,12.63
2022-09-21T08:09:00.080Z,12.96
2022-09-21T08:11:27.805Z,12.75
2022-09-21T08:13:55.554Z,12.92
2022-09-21T08:16:22.471Z,13.10
2022-09-21T08:18:48.920Z,13.12
2022-09-21T08:21:15.297Z,12.95
2022-09-21T08:23:42.578Z,12.93
2022-09-21T08:26:11.370Z,12.68
2022-09-21T08:28:38.650Z,13.25
2022-09-21T08:31:06.003Z,13.49
2022-09-21T08:33:32.620Z,13.63
2022-09-21T08:35:59.902Z,13.25
2022-09-21T08:38:26.685Z,13.35
2022-09-21T08:40:53.930Z,13.04
2022-09-21T08:43:31.716Z,13.21
2022-09-21T08:45:58.950Z,13.41
2022-09-21T08:48:33.096Z,13.48
2022-09-21T08:51:04.764Z,13.31
2022-09-21T08:53:33.301Z,13.66
2022-09-21T08:55:59.756Z,13.74
2022-09-21T08:58:27.435Z,13.92
2022-09-21T09:01:03.597Z,14.11
2022-09-21T09:03:45.455Z,14.18
2022-09-21T09:06:26.641Z,14.03
2022-09-21T09:09:09.947Z,14.25
2022-09-21T09:11:36.384Z,14.34
2022-09-21T09:14:05.601Z,14.06
2022-09-21T09:16:51.014Z,14.58
2022-09-21T09:19:32.656Z,14.11
2022-09-21T09:22:01.947Z,14.62
2022-09-21T09:24:28.290Z,14.65
2022-09-21T09:27:02.431Z,15.04
2022-09-21T09:32:17.463Z,14.76
2022-09-21T09:34:57.854Z,14.88
2022-09-21T09:37:29.023Z,14.83
2022-09-21T09:39:57.697Z,15.08
2022-09-21T09:42:43.009Z,14.57
2022-09-21T09:45:24.188Z,15.16
2022-09-21T09:47:54.921Z,15.14
2022-09-21T09:50:27.390Z,14.75
2022-09-21T09:52:56.359Z,14.64
2022-09-21T09:55:26.836Z,15.10
2022-09-21T09:57:55.549Z,15.01
2022-09-21T10:00:22.300Z,15.31
2022-09-21T10:03:01.443Z,14.91
2022-09-21T10:05:30.800Z,15.03
2022-09-21T10:07:57.376Z,15.29
2022-09-21T10:10:29.730Z,15.41
2022-09-21T10:13:01.933Z,15.71
2022-09-21T10:15:29.165Z,15.68
2022-09-21T10:18:04.672Z,15.96
2022-09-21T10:20:32.986Z,15.56
2022-09-21T10:23:00.236Z,16.01
2022-09-21T10:25:26.740Z,16.04
2022-09-21T10:27:53.171Z,15.87
2022-09-21T10:30:21.057Z,15.95
2022-09-21T10:32:54.956Z,15.66
2022-09-21T10:35:21.388Z,15.89
2022-09-21T10:37:54.363Z,15.82
2022-09-21T10:40:20.809Z,16.14
2022-09-21T10:42:58.577Z,16.03
2022-09-21T10:45:32.200Z,15.85
2022-09-21T10:48:16.473Z,16.22
2022-09-21T10:50:46.708Z,16.52
2022-09-21T10:53:19.008Z,16.15
2022-09-21T10:56:14.998Z,16.10
2022-09-21T10:59:02.163Z,16.00
2022-09-21T11:01:29.958Z,16.45
2022-09-21T11:04:00.372Z,17.22
2022-09-21T11:06:34.127Z,16.96
2022-09-21T11:09:06.259Z,16.53
2022-09-21T11:11:39.428Z,16.83
2022-09-21T11:14:05.812Z,16.61
2022-09-21T11:16:48.652Z,16.85
2022-09-21T11:19:15.004Z,17.31
2022-09-21T11:21:44.225Z,17.58
2022-09-21T11:24:10.544Z,16.76
2022-09-21T11:26:40.651Z,16.65
2022-09-21T11:29:18.987Z,17.03
2022-09-21T11:31:48.208Z,16.99
2022-09-21T11:34:36.091Z,17.17
2022-09-21T11:37:02.437Z,16.69
2022-09-21T11:39:34.653Z,16.92
2022-09-21T11:42:11.051Z,17.07
2022-09-21T11:44:55.861Z,17.02
2022-09-21T11:47:37.562Z,17.33
2022-09-21T11:50:31.299Z,17.64
2022-09-21T11:53:18.369Z,17.56
2022-09-21T11:56:17.220Z,17.72
2022-09-21T11:59:04.133Z,17.82
2022-09-21T12:01:36.710Z,17.41
2022-09-21T12:04:12.249Z,17.57
2022-09-21T12:06:50.722Z,17.90
2022-09-21T12:09:43.795Z,17.63
2022-09-21T12:12:17.048Z,17.63
2022-09-21T12:14:50.329Z,17.74
2022-09-21T12:17:21.127Z,17.70
2022-09-21T12:19:56.842Z,17.80
2022-09-21T12:22:32.331Z,17.71
2022-09-21T12:25:04.882Z,17.76
2022-09-21T12:27:37.943Z,18.03
2022-09-21T12:30:11.115Z,17.86
2022-09-21T12:33:03.896Z,17.78
2022-09-21T12:35:44.438Z,18.11
2022-09-21T12:38:20.066Z,17.92
2022-09-21T12:40:51.579Z,17.88
2022-09-21T12:43:36.570Z,18.24
2022-09-21T12:46:02.973Z,18.01
2022-09-21T12:48:33.908Z,17.66
2022-09-21T12:51:12.012Z,17.83
2022-09-21T12:53:40.155Z,18.05
2022-09-21T12:56:10.241Z,18.62
2022-09-21T12:58:45.844Z,18.29
2022-09-21T13:01:15.281Z,18.99
2022-09-21T13:03:55.043Z,19.30
2022-09-21T13:06:36.677Z,19.50
2022-09-21T13:09:07.346Z,19.61
2022-09-21T13:11:49.703Z,19.57
2022-09-21T13:14:17.220Z,19.70
2022-09-21T13:16:43.641Z,19.96
2022-09-21T13:19:13.001Z,19.33
2022-09-21T13:21:40.036Z,19.47
2022-09-21T13:24:07.943Z,19.48
2022-09-21T13:26:37.497Z,19.51
2022-09-21T13:29:19.004Z,19.43
2022-09-21T13:31:59.347Z,19.06
2022-09-21T13:34:28.603Z,18.73
2022-09-21T13:37:17.749Z,18.63
2022-09-21T13:39:44.819Z,19.13
2022-09-21T13:42:40.604Z,19.70
2022-09-21T13:45:13.688Z,19.35
2022-09-21T13:47:41.683Z,19.69
2022-09-21T13:50:26.954Z,19.69
2022-09-21T13:52:57.461Z,19.55
2022-09-21T13:55:23.814Z,19.48
2022-09-21T13:57:52.082Z,18.77
2022-09-21T14:00:19.841Z,19.28
2022-09-21T14:02:46.255Z,19.20
2022-09-21T14:05:19.348Z,18.98
2022-09-21T14:07:48.069Z,18.61
2022-09-21T14:10:18.685Z,18.82
2022-09-21T14:12:45.548Z,18.65
2022-09-21T14:15:14.943Z,18.88
2022-09-21T14:17:41.621Z,18.92
2022-09-21T14:20:30.279Z,18.95
2022-09-21T14:23:19.243Z,18.95
2022-09-21T14:25:53.103Z,18.88
2022-09-21T14:28:26.752Z,18.86
2022-09-21T14:30:57.965Z,18.85
2022-09-21T14:33:27.487Z,18.79
2022-09-21T14:35:54.985Z,18.79
2022-09-21T14:38:27.121Z,18.78
2022-09-21T14:40:56.302Z,18.52
2022-09-21T14:43:28.018Z,18.28
2022-09-21T14:46:01.307Z,18.19
2022-09-21T14:48:34.437Z,18.12
2022-09-21T14:51:22.888Z,18.27
2022-09-21T14:53:49.241Z,18.25
2022-09-21T14:56:15.784Z,18.09
2022-09-21T14:58:57.249Z,18.26
2022-09-21T15:01:36.093Z,18.65
2022-09-21T15:04:11.409Z,18.83
2022-09-21T15:07:00.932Z,18.20
2022-09-21T15:09:45.921Z,18.00
2022-09-21T15:12:16.157Z,18.00
2022-09-21T15:14:46.215Z,17.85
2022-09-21T15:17:24.219Z,17.97
2022-09-21T15:19:50.770Z,18.32
2022-09-21T15:22:18.632Z,18.29
2022-09-21T15:25:11.960Z,18.23
2022-09-21T15:27:41.678Z,18.28
2022-09-21T15:30:18.655Z,18.38
2022-09-21T15:32:46.676Z,18.00
2022-09-21T15:35:17.446Z,18.36
2022-09-21T15:37:45.689Z,18.43
2022-09-21T15:40:16.979Z,18.50
2022-09-21T15:43:01.526Z,18.40
2022-09-21T15:45:29.512Z,18.40
2022-09-21T15:47:56.656Z,18.44
2022-09-21T15:50:23.375Z,18.38
2022-09-21T15:53:10.149Z,18.32
2022-09-21T15:55:36.664Z,18.07
2022-09-21T15:58:12.095Z,18.25
2022-09-21T16:00:39.899Z,18.24
2022-09-21T16:03:08.254Z,18.24
2022-09-21T16:05:48.296Z,18.27
2022-09-21T16:08:19.557Z,18.07
2022-09-21T16:10:45.935Z,18.14
2022-09-21T16:13:31.175Z,18.15
2022-09-21T16:16:04.960Z,18.11
2022-09-21T16:18:35.189Z,18.07
2022-09-21T16:21:08.521Z,18.07
2022-09-21T16:23:37.102Z,18.05
2022-09-21T16:26:03.615Z,18.01
2022-09-21T16:28:40.869Z,17.95
2022-09-21T16:31:22.639Z,18.07
2022-09-21T16:33:49.122Z,18.54
2022-09-21T16:36:33.877Z,18.21
2022-09-21T16:39:06.451Z,17.96
2022-09-21T16:41:34.870Z,17.75
2022-09-21T16:44:02.791Z,17.76
2022-09-21T16:46:31.669Z,17.81
2022-09-21T16:49:00.233Z,17.82
2022-09-21T16:51:27.859Z,17.79
2022-09-21T16:53:55.678Z,17.80
2022-09-21T16:56:22.384Z,17.78
2022-09-21T16:58:48.750Z,17.76
2022-09-21T17:01:18.106Z,17.72
2022-09-21T17:03:46.290Z,17.71
2022-09-21T17:06:15.874Z,17.67
2022-09-21T17:08:42.379Z,17.64
2022-09-21T17:11:08.705Z,17.63
2022-09-21T17:13:35.073Z,17.60
2022-09-21T17:16:01.798Z,17.58
2022-09-21T17:18:28.281Z,17.53
2022-09-21T17:20:54.720Z,17.49
2022-09-21T17:23:27.453Z,17.50
2022-09-21T17:25:53.852Z,17.44
2022-09-21T17:28:25.642Z,17.35
2022-09-21T17:30:52.918Z,17.34
2022-09-21T17:33:21.375Z,17.41
2022-09-21T17:35:50.619Z,17.31
2022-09-21T17:38:17.862Z,17.30
2022-09-21T17:40:44.484Z,17.25
2022-09-21T17:43:11.936Z,17.21
2022-09-21T17:45:50.400Z,17.19
2022-09-21T17:48:21.953Z,17.13
2022-09-21T17:50:48.916Z,17.07
2022-09-21T17:53:34.548Z,17.02
2022-09-21T17:56:13.241Z,17.02
2022-09-21T17:58:45.939Z,16.95
2022-09-21T18:01:31.338Z,16.96
2022-09-21T18:03:57.842Z,16.91
2022-09-21T18:06:24.445Z,16.82
2022-09-21T18:08:50.924Z,16.80
2022-09-21T18:11:21.659Z,16.75
2022-09-21T18:14:04.482Z,16.73
2022-09-21T18:16:30.860Z,16.71
2022-09-21T18:18:57.206Z,16.65
2022-09-21T18:21:27.843Z,16.59
2022-09-21T18:24:00.289Z,16.54
2022-09-21T18:26:26.723Z,16.50
2022-09-21T18:28:59.312Z,16.47
2022-09-21T18:31:40.974Z,16.46
2022-09-21T18:34:45.907Z,16.43
2022-09-21T18:37:12.973Z,16.38
2022-09-21T18:39:48.432Z,16.34
2022-09-21T18:42:20.753Z,16.23
2022-09-21T18:44:50.543Z,16.21
2022-09-21T18:47:27.835Z,16.17
2022-09-21T18:49:57.178Z,16.14
2022-09-21T18:52:29.660Z,16.08
2022-09-21T18:54:56.170Z,16.04
2022-09-21T18:57:23.359Z,15.97
2022-09-21T18:59:50.235Z,15.96
2022-09-21T19:02:20.024Z,15.91
2022-09-21T19:04:46.731Z,15.86
2022-09-21T19:07:25.393Z,15.80
2022-09-21T19:09:56.916Z,15.78
2022-09-21T19:12:40.001Z,15.79
2022-09-21T19:15:17.137Z,15.72
2022-09-21T19:17:57.513Z,15.68
2022-09-21T19:20:34.168Z,15.63
2022-09-21T19:23:03.311Z,15.61
2022-09-21T19:25:34.148Z,15.56
2022-09-21T19:28:02.581Z,15.57
2022-09-21T19:30:29.845Z,15.50
2022-09-21T19:33:02.424Z,15.46
2022-09-21T19:35:29.961Z,15.45
2022-09-21T19:38:01.351Z,15.44
2022-09-21T19:40:37.084Z,15.36
2022-09-21T19:43:15.633Z,15.34
2022-09-21T19:46:04.829Z,15.27
2022-09-21T19:48:59.016Z,15.24
2022-09-21T19:51:38.424Z,15.20
2022-09-21T19:54:29.764Z,15.17
2022-09-21T19:57:14.624Z,15.11
2022-09-21T19:59:43.779Z,15.10
2022-09-21T20:02:14.823Z,15.03
2022-09-21T20:04:46.124Z,15.04
2022-09-21T20:07:34.010Z,15.01
2022-09-21T20:10:15.313Z,14.95
2022-09-21T20:12:49.915Z,14.96
2022-09-21T20:15:21.528Z,14.88
2022-09-21T20:17:47.886Z,14.90
2022-09-21T20:20:21.408Z,14.86
2022-09-21T20:22:47.866Z,14.87
2022-09-21T20:25:34.881Z,14.82
2022-09-21T20:28:02.158Z,14.77
2022-09-21T20:30:32.564Z,14.74
2022-09-21T20:33:09.259Z,14.72
2022-09-21T20:35:35.733Z,14.69
2022-09-21T20:38:03.132Z,14.65
2022-09-21T20:40:31.061Z,14.65
2022-09-21T20:42:58.358Z,14.63
2022-09-21T20:45:24.797Z,14.61
2022-09-21T20:47:51.976Z,14.58
2022-09-21T20:50:19.004Z,14.56
2022-09-21T20:52:45.438Z,14.57
2022-09-21T20:55:13.644Z,14.52
2022-09-21T20:57:42.926Z,14.49
2022-09-21T21:00:13.719Z,14.49
2022-09-21T21:02:40.235Z,14.45
2022-09-21T21:05:07.872Z,14.44
2022-09-21T21:07:35.129Z,14.41
2022-09-21T21:10:02.193Z,14.41
2022-09-21T21:12:28.738Z,14.39
2022-09-21T21:14:55.685Z,14.33
2022-09-21T21:17:22.051Z,14.31
2022-09-21T21:19:48.412Z,14.27
2022-09-21T21:22:14.816Z,14.25
2022-09-21T21:24:41.449Z,14.23
2022-09-21T21:27:11.511Z,14.19
2022-09-21T21:29:38.210Z,14.20
2022-09-21T21:32:05.319Z,14.17
2022-09-21T21:34:31.758Z,14.15
2022-09-21T21:36:58.277Z,14.12
2022-09-21T21:39:24.657Z,14.05
2022-09-21T21:41:51.026Z,14.04
2022-09-21T21:44:17.384Z,14.05
2022-09-21T21:46:43.829Z,14.03
2022-09-21T21:49:10.315Z,13.99
2022-09-21T21:51:36.756Z,13.95
2022-09-21T21:54:03.254Z,13.93
2022-09-21T21:56:29.665Z,13.94
2022-09-21T21:58:56.043Z,13.92
2022-09-21T22:01:24.504Z,13.89
2022-09-21T22:03:54.699Z,13.88
2022-09-21T22:06:21.671Z,13.84
2022-09-21T22:08:48.472Z,13.84
2022-09-21T22:11:17.530Z,13.79
2022-09-21T22:13:45.190Z,13.78
2022-09-21T22:16:12.850Z,13.77
2022-09-21T22:18:39.778Z,13.75
2022-09-21T22:21:10.623Z,13.72
2022-09-21T22:23:37.286Z,13.69
2022-09-21T22:26:04.815Z,13.68
2022-09-21T22:28:32.080Z,13.63
2022-09-21T22:30:59.666Z,13.63
2022-09-21T22:33:28.918Z,13.61
2022-09-21T22:36:09.239Z,13.58
2022-09-21T22:38:41.913Z,13.58
2022-09-21T22:41:10.320Z,13.58
2022-09-21T22:43:36.965Z,13.54
2022-09-21T22:46:04.147Z,13.48
2022-09-21T22:48:30.609Z,13.47
2022-09-21T22:50:57.123Z,13.47
2022-09-21T22:53:23.615Z,13.46
2022-09-21T22:56:00.224Z,13.42
2022-09-21T22:58:26.576Z,13.41
2022-09-21T23:00:52.950Z,13.37
2022-09-21T23:03:19.315Z,13.36
2022-09-21T23:05:55.038Z,13.34
2022-09-21T23:08:21.352Z,13.33
2022-09-21T23:10:47.666Z,13.28
2022-09-21T23:13:15.885Z,13.24
2022-09-21T23:15:42.743Z,13.23
2022-09-21T23:18:09.488Z,13.22
2022-09-21T23:20:35.961Z,13.21
2022-09-21T23:23:03.517Z,13.17
2022-09-21T23:25:29.970Z,13.16
2022-09-21T23:27:57.610Z,13.11
2022-09-21T23:30:23.963Z,13.11
2022-09-21T23:32:53.220Z,13.11
2022-09-21T23:35:19.545Z,13.07
2022-09-21T23:37:45.997Z,13.03
2022-09-21T23:40:12.926Z,13.04
2022-09-21T23:42:39.292Z,13.02
2022-09-21T23:45:05.892Z,12.99
2022-09-21T23:47:32.223Z,12.96
2022-09-21T23:49:58.549Z,12.95
2022-09-21T23:52:24.869Z,12.97
2022-09-21T23:54:51.218Z,12.93
2022-09-21T23:57:17.764Z,12.92
2022-09-21T23:59:44.091Z,12.90
